sensor_id;sensor_type;location;lat;lon;timestamp;P1;durP1;ratioP1;P2;durP2;ratioP2
50495;SDS011;38806;51.554;5.704;2023-09-18T00:01:21;38.08;;;27.42;;
50495;SDS011;38806;51.554;5.704;2023-09-18T00:03:21;39.23;;;28.03;;
50495;SDS011;38806;51.554;5.704;2023-09-18T00:05:24;35.00;;;26.60;;
50495;SDS011;38806;51.554;5.704;2023-09-18T00:07:24;34.23;;;24.17;;
50495;SDS011;38806;51.554;5.704;2023-09-18T00:09:24;33.90;;;26.80;;
50495;SDS011;38806;51.554;5.704;2023-09-18T00:11:24;40.17;;;28.20;;
50495;SDS011;38806;51.554;5.704;2023-09-18T00:13:25;40.35;;;28.90;;
50495;SDS011;38806;51.554;5.704;2023-09-18T00:15:25;33.92;;;25.38;;
50495;SDS011;38806;51.554;5.704;2023-09-18T00:17:26;37.95;;;29.13;;
50495;SDS011;38806;51.554;5.704;2023-09-18T00:19:26;40.72;;;28.05;;
50495;SDS011;38806;51.554;5.704;2023-09-18T00:21:27;37.78;;;28.27;;
50495;SDS011;38806;51.554;5.704;2023-09-18T00:23:28;44.63;;;30.80;;
50495;SDS011;38806;51.554;5.704;2023-09-18T00:25:28;42.50;;;28.90;;
50495;SDS011;38806;51.554;5.704;2023-09-18T00:27:30;43.38;;;29.73;;
50495;SDS011;38806;51.554;5.704;2023-09-18T00:29:32;41.42;;;30.20;;
50495;SDS011;38806;51.554;5.704;2023-09-18T00:31:32;44.40;;;29.37;;
50495;SDS011;38806;51.554;5.704;2023-09-18T00:33:33;42.60;;;29.60;;
50495;SDS011;38806;51.554;5.704;2023-09-18T00:35:33;47.67;;;31.53;;
50495;SDS011;38806;51.554;5.704;2023-09-18T00:37:33;38.67;;;28.73;;
50495;SDS011;38806;51.554;5.704;2023-09-18T00:39:33;39.35;;;28.52;;
50495;SDS011;38806;51.554;5.704;2023-09-18T00:41:33;41.60;;;27.13;;
50495;SDS011;38806;51.554;5.704;2023-09-18T00:43:33;39.10;;;28.33;;
50495;SDS011;38806;51.554;5.704;2023-09-18T00:45:34;45.53;;;30.45;;
50495;SDS011;38806;51.554;5.704;2023-09-18T00:47:38;38.03;;;29.05;;
50495;SDS011;38806;51.554;5.704;2023-09-18T00:49:38;42.15;;;27.40;;
50495;SDS011;38806;51.554;5.704;2023-09-18T00:51:40;44.78;;;30.30;;
50495;SDS011;38806;51.554;5.704;2023-09-18T00:53:42;41.85;;;26.77;;
50495;SDS011;38806;51.554;5.704;2023-09-18T00:55:43;35.97;;;26.75;;
50495;SDS011;38806;51.554;5.704;2023-09-18T00:57:43;39.72;;;28.60;;
50495;SDS011;38806;51.554;5.704;2023-09-18T00:59:44;41.60;;;28.80;;
50495;SDS011;38806;51.554;5.704;2023-09-18T01:01:45;39.30;;;27.27;;
50495;SDS011;38806;51.554;5.704;2023-09-18T01:03:45;34.03;;;25.07;;
50495;SDS011;38806;51.554;5.704;2023-09-18T01:05:45;34.25;;;24.42;;
50495;SDS011;38806;51.554;5.704;2023-09-18T01:07:46;33.65;;;22.65;;
50495;SDS011;38806;51.554;5.704;2023-09-18T01:09:46;32.20;;;22.95;;
50495;SDS011;38806;51.554;5.704;2023-09-18T01:14:30;30.77;;;21.93;;
50495;SDS011;38806;51.554;5.704;2023-09-18T01:16:11;27.45;;;19.33;;
50495;SDS011;38806;51.554;5.704;2023-09-18T01:18:14;32.15;;;23.05;;
50495;SDS011;38806;51.554;5.704;2023-09-18T01:20:16;29.08;;;22.83;;
50495;SDS011;38806;51.554;5.704;2023-09-18T01:22:18;32.67;;;21.10;;
50495;SDS011;38806;51.554;5.704;2023-09-18T01:24:18;31.52;;;20.40;;
50495;SDS011;38806;51.554;5.704;2023-09-18T01:26:18;32.50;;;22.47;;
50495;SDS011;38806;51.554;5.704;2023-09-18T01:28:19;28.90;;;20.20;;
50495;SDS011;38806;51.554;5.704;2023-09-18T01:30:19;28.05;;;20.42;;
50495;SDS011;38806;51.554;5.704;2023-09-18T01:32:19;26.33;;;18.50;;
50495;SDS011;38806;51.554;5.704;2023-09-18T01:34:21;28.17;;;20.38;;
50495;SDS011;38806;51.554;5.704;2023-09-18T01:36:23;28.63;;;19.00;;
50495;SDS011;38806;51.554;5.704;2023-09-18T01:38:24;25.40;;;17.58;;
50495;SDS011;38806;51.554;5.704;2023-09-18T01:40:25;28.02;;;17.63;;
50495;SDS011;38806;51.554;5.704;2023-09-18T01:42:26;23.90;;;16.50;;
50495;SDS011;38806;51.554;5.704;2023-09-18T01:44:27;28.77;;;16.92;;
50495;SDS011;38806;51.554;5.704;2023-09-18T01:46:27;24.85;;;17.45;;
50495;SDS011;38806;51.554;5.704;2023-09-18T01:48:27;25.15;;;16.08;;
50495;SDS011;38806;51.554;5.704;2023-09-18T01:50:28;21.27;;;14.88;;
50495;SDS011;38806;51.554;5.704;2023-09-18T01:52:28;35.30;;;15.20;;
50495;SDS011;38806;51.554;5.704;2023-09-18T01:54:29;27.83;;;14.83;;
50495;SDS011;38806;51.554;5.704;2023-09-18T01:56:30;19.65;;;13.60;;
50495;SDS011;38806;51.554;5.704;2023-09-18T01:58:30;22.97;;;12.70;;
50495;SDS011;38806;51.554;5.704;2023-09-18T02:00:30;18.27;;;13.57;;
50495;SDS011;38806;51.554;5.704;2023-09-18T02:02:30;16.80;;;12.05;;
50495;SDS011;38806;51.554;5.704;2023-09-18T02:04:30;18.80;;;11.10;;
50495;SDS011;38806;51.554;5.704;2023-09-18T02:06:31;20.52;;;13.90;;
50495;SDS011;38806;51.554;5.704;2023-09-18T02:08:31;17.67;;;12.23;;
50495;SDS011;38806;51.554;5.704;2023-09-18T02:10:31;16.87;;;10.93;;
50495;SDS011;38806;51.554;5.704;2023-09-18T02:12:31;14.68;;;10.15;;
50495;SDS011;38806;51.554;5.704;2023-09-18T02:14:31;16.83;;;10.57;;
50495;SDS011;38806;51.554;5.704;2023-09-18T02:16:32;22.67;;;11.37;;
50495;SDS011;38806;51.554;5.704;2023-09-18T02:18:33;18.00;;;12.20;;
50495;SDS011;38806;51.554;5.704;2023-09-18T02:20:39;18.60;;;10.27;;
50495;SDS011;38806;51.554;5.704;2023-09-18T02:22:40;19.85;;;11.40;;
50495;SDS011;38806;51.554;5.704;2023-09-18T02:24:40;14.33;;;9.70;;
50495;SDS011;38806;51.554;5.704;2023-09-18T02:26:40;16.02;;;10.15;;
50495;SDS011;38806;51.554;5.704;2023-09-18T02:28:40;13.70;;;9.30;;
50495;SDS011;38806;51.554;5.704;2023-09-18T02:30:40;16.23;;;9.70;;
50495;SDS011;38806;51.554;5.704;2023-09-18T02:32:41;18.17;;;10.73;;
50495;SDS011;38806;51.554;5.704;2023-09-18T02:34:42;15.45;;;9.55;;
50495;SDS011;38806;51.554;5.704;2023-09-18T02:36:42;14.27;;;10.10;;
50495;SDS011;38806;51.554;5.704;2023-09-18T02:38:42;16.75;;;9.40;;
50495;SDS011;38806;51.554;5.704;2023-09-18T02:40:43;16.90;;;10.60;;
50495;SDS011;38806;51.554;5.704;2023-09-18T02:42:43;11.45;;;9.00;;
50495;SDS011;38806;51.554;5.704;2023-09-18T02:44:43;15.63;;;10.00;;
50495;SDS011;38806;51.554;5.704;2023-09-18T02:46:44;20.77;;;10.47;;
50495;SDS011;38806;51.554;5.704;2023-09-18T02:48:44;12.02;;;10.00;;
50495;SDS011;38806;51.554;5.704;2023-09-18T02:50:44;16.48;;;10.05;;
50495;SDS011;38806;51.554;5.704;2023-09-18T02:52:45;12.48;;;9.25;;
50495;SDS011;38806;51.554;5.704;2023-09-18T02:54:45;13.50;;;9.17;;
50495;SDS011;38806;51.554;5.704;2023-09-18T02:56:45;17.30;;;9.10;;
50495;SDS011;38806;51.554;5.704;2023-09-18T02:58:45;14.77;;;9.40;;
50495;SDS011;38806;51.554;5.704;2023-09-18T03:00:47;14.57;;;9.98;;
50495;SDS011;38806;51.554;5.704;2023-09-18T03:02:48;16.25;;;10.73;;
50495;SDS011;38806;51.554;5.704;2023-09-18T03:04:48;18.85;;;10.80;;
50495;SDS011;38806;51.554;5.704;2023-09-18T03:06:48;16.80;;;10.98;;
50495;SDS011;38806;51.554;5.704;2023-09-18T03:08:49;18.38;;;10.98;;
50495;SDS011;38806;51.554;5.704;2023-09-18T03:10:49;19.88;;;9.63;;
50495;SDS011;38806;51.554;5.704;2023-09-18T03:12:49;19.93;;;11.10;;
50495;SDS011;38806;51.554;5.704;2023-09-18T03:14:50;17.73;;;10.50;;
50495;SDS011;38806;51.554;5.704;2023-09-18T03:16:51;20.55;;;10.77;;
50495;SDS011;38806;51.554;5.704;2023-09-18T03:18:51;14.80;;;9.13;;
50495;SDS011;38806;51.554;5.704;2023-09-18T03:20:51;17.93;;;9.07;;
50495;SDS011;38806;51.554;5.704;2023-09-18T03:22:52;17.52;;;9.88;;
50495;SDS011;38806;51.554;5.704;2023-09-18T03:24:52;12.55;;;9.63;;
50495;SDS011;38806;51.554;5.704;2023-09-18T03:26:52;17.60;;;9.17;;
50495;SDS011;38806;51.554;5.704;2023-09-18T03:28:52;18.30;;;9.40;;
50495;SDS011;38806;51.554;5.704;2023-09-18T03:30:53;18.80;;;9.60;;
50495;SDS011;38806;51.554;5.704;2023-09-18T03:32:53;13.37;;;9.63;;
50495;SDS011;38806;51.554;5.704;2023-09-18T03:34:53;18.83;;;8.68;;
50495;SDS011;38806;51.554;5.704;2023-09-18T03:36:53;12.10;;;8.33;;
50495;SDS011;38806;51.554;5.704;2023-09-18T03:38:54;14.80;;;8.65;;
50495;SDS011;38806;51.554;5.704;2023-09-18T03:40:54;16.57;;;9.63;;
50495;SDS011;38806;51.554;5.704;2023-09-18T03:42:54;22.67;;;9.18;;
50495;SDS011;38806;51.554;5.704;2023-09-18T03:44:55;17.80;;;9.00;;
50495;SDS011;38806;51.554;5.704;2023-09-18T03:46:55;26.20;;;9.38;;
50495;SDS011;38806;51.554;5.704;2023-09-18T03:48:55;21.50;;;10.00;;
50495;SDS011;38806;51.554;5.704;2023-09-18T03:50:57;17.42;;;8.98;;
50495;SDS011;38806;51.554;5.704;2023-09-18T03:52:57;18.67;;;7.63;;
50495;SDS011;38806;51.554;5.704;2023-09-18T03:54:57;11.77;;;8.48;;
50495;SDS011;38806;51.554;5.704;2023-09-18T03:56:58;12.80;;;8.20;;
50495;SDS011;38806;51.554;5.704;2023-09-18T03:58:58;13.02;;;6.97;;
50495;SDS011;38806;51.554;5.704;2023-09-18T04:01:01;15.75;;;7.70;;
50495;SDS011;38806;51.554;5.704;2023-09-18T04:03:02;14.85;;;7.30;;
50495;SDS011;38806;51.554;5.704;2023-09-18T04:05:02;13.50;;;7.28;;
50495;SDS011;38806;51.554;5.704;2023-09-18T04:07:06;16.38;;;7.35;;
50495;SDS011;38806;51.554;5.704;2023-09-18T04:09:06;10.55;;;6.68;;
50495;SDS011;38806;51.554;5.704;2023-09-18T04:11:07;14.55;;;7.72;;
50495;SDS011;38806;51.554;5.704;2023-09-18T04:13:07;14.05;;;7.00;;
50495;SDS011;38806;51.554;5.704;2023-09-18T04:15:08;12.55;;;6.95;;
50495;SDS011;38806;51.554;5.704;2023-09-18T04:17:09;12.85;;;6.65;;
50495;SDS011;38806;51.554;5.704;2023-09-18T04:19:09;12.88;;;6.60;;
50495;SDS011;38806;51.554;5.704;2023-09-18T04:21:09;14.95;;;6.80;;
50495;SDS011;38806;51.554;5.704;2023-09-18T04:23:17;14.32;;;7.88;;
50495;SDS011;38806;51.554;5.704;2023-09-18T04:25:17;13.88;;;7.45;;
50495;SDS011;38806;51.554;5.704;2023-09-18T04:27:19;13.40;;;7.80;;
50495;SDS011;38806;51.554;5.704;2023-09-18T04:29:19;15.20;;;6.63;;
50495;SDS011;38806;51.554;5.704;2023-09-18T04:31:19;14.27;;;6.68;;
50495;SDS011;38806;51.554;5.704;2023-09-18T04:33:19;14.03;;;8.17;;
50495;SDS011;38806;51.554;5.704;2023-09-18T04:35:21;15.35;;;7.60;;
50495;SDS011;38806;51.554;5.704;2023-09-18T04:37:25;13.40;;;8.38;;
50495;SDS011;38806;51.554;5.704;2023-09-18T04:39:25;14.70;;;7.43;;
50495;SDS011;38806;51.554;5.704;2023-09-18T04:41:25;12.10;;;6.97;;
50495;SDS011;38806;51.554;5.704;2023-09-18T04:43:25;12.70;;;6.57;;
50495;SDS011;38806;51.554;5.704;2023-09-18T04:45:26;13.38;;;7.43;;
50495;SDS011;38806;51.554;5.704;2023-09-18T04:47:26;14.52;;;7.47;;
50495;SDS011;38806;51.554;5.704;2023-09-18T04:49:27;13.95;;;8.25;;
50495;SDS011;38806;51.554;5.704;2023-09-18T04:51:28;18.52;;;7.97;;
50495;SDS011;38806;51.554;5.704;2023-09-18T04:53:28;13.03;;;7.80;;
50495;SDS011;38806;51.554;5.704;2023-09-18T04:55:28;13.57;;;8.32;;
50495;SDS011;38806;51.554;5.704;2023-09-18T04:57:28;12.90;;;7.67;;
50495;SDS011;38806;51.554;5.704;2023-09-18T04:59:28;14.43;;;7.68;;
50495;SDS011;38806;51.554;5.704;2023-09-18T05:01:29;12.80;;;7.67;;
50495;SDS011;38806;51.554;5.704;2023-09-18T05:03:33;16.80;;;9.90;;
50495;SDS011;38806;51.554;5.704;2023-09-18T05:05:34;13.50;;;8.13;;
50495;SDS011;38806;51.554;5.704;2023-09-18T05:07:34;12.55;;;8.45;;
50495;SDS011;38806;51.554;5.704;2023-09-18T05:09:34;11.20;;;7.95;;
50495;SDS011;38806;51.554;5.704;2023-09-18T05:11:35;10.65;;;6.82;;
50495;SDS011;38806;51.554;5.704;2023-09-18T05:13:35;13.88;;;7.38;;
50495;SDS011;38806;51.554;5.704;2023-09-18T05:15:36;9.43;;;6.17;;
50495;SDS011;38806;51.554;5.704;2023-09-18T05:17:45;13.93;;;5.88;;
50495;SDS011;38806;51.554;5.704;2023-09-18T05:19:57;15.52;;;6.82;;
50495;SDS011;38806;51.554;5.704;2023-09-18T05:21:57;9.33;;;6.03;;
50495;SDS011;38806;51.554;5.704;2023-09-18T05:23:57;7.45;;;3.92;;
50495;SDS011;38806;51.554;5.704;2023-09-18T05:25:58;10.35;;;4.60;;
50495;SDS011;38806;51.554;5.704;2023-09-18T05:28:00;8.93;;;5.25;;
50495;SDS011;38806;51.554;5.704;2023-09-18T05:30:00;9.18;;;4.63;;
50495;SDS011;38806;51.554;5.704;2023-09-18T05:32:00;6.97;;;3.95;;
50495;SDS011;38806;51.554;5.704;2023-09-18T05:34:01;7.57;;;4.30;;
50495;SDS011;38806;51.554;5.704;2023-09-18T05:36:01;9.32;;;3.15;;
50495;SDS011;38806;51.554;5.704;2023-09-18T05:38:01;6.70;;;3.00;;
50495;SDS011;38806;51.554;5.704;2023-09-18T05:40:01;6.13;;;3.00;;
50495;SDS011;38806;51.554;5.704;2023-09-18T05:42:04;5.68;;;2.78;;
50495;SDS011;38806;51.554;5.704;2023-09-18T05:44:05;7.75;;;2.97;;
50495;SDS011;38806;51.554;5.704;2023-09-18T05:46:07;7.97;;;2.45;;
50495;SDS011;38806;51.554;5.704;2023-09-18T05:48:07;5.70;;;3.10;;
50495;SDS011;38806;51.554;5.704;2023-09-18T05:50:08;7.10;;;2.72;;
50495;SDS011;38806;51.554;5.704;2023-09-18T05:52:09;7.05;;;3.20;;
50495;SDS011;38806;51.554;5.704;2023-09-18T05:54:09;4.53;;;2.20;;
50495;SDS011;38806;51.554;5.704;2023-09-18T05:56:09;7.97;;;3.07;;
50495;SDS011;38806;51.554;5.704;2023-09-18T05:58:10;8.25;;;2.97;;
50495;SDS011;38806;51.554;5.704;2023-09-18T06:00:10;6.03;;;3.30;;
50495;SDS011;38806;51.554;5.704;2023-09-18T06:02:13;5.90;;;3.17;;
50495;SDS011;38806;51.554;5.704;2023-09-18T06:04:13;6.55;;;3.17;;
50495;SDS011;38806;51.554;5.704;2023-09-18T06:06:13;5.87;;;2.57;;
50495;SDS011;38806;51.554;5.704;2023-09-18T06:08:14;5.18;;;2.45;;
50495;SDS011;38806;51.554;5.704;2023-09-18T06:10:14;4.25;;;2.13;;
50495;SDS011;38806;51.554;5.704;2023-09-18T06:12:14;3.63;;;2.25;;
50495;SDS011;38806;51.554;5.704;2023-09-18T06:14:14;6.57;;;2.27;;
50495;SDS011;38806;51.554;5.704;2023-09-18T06:16:15;4.30;;;2.30;;
50495;SDS011;38806;51.554;5.704;2023-09-18T06:18:15;3.95;;;1.80;;
50495;SDS011;38806;51.554;5.704;2023-09-18T06:20:15;5.13;;;2.43;;
50495;SDS011;38806;51.554;5.704;2023-09-18T06:22:16;5.63;;;1.77;;
50495;SDS011;38806;51.554;5.704;2023-09-18T06:24:16;4.68;;;2.28;;
50495;SDS011;38806;51.554;5.704;2023-09-18T06:26:17;7.83;;;2.13;;
50495;SDS011;38806;51.554;5.704;2023-09-18T06:28:17;6.63;;;2.30;;
50495;SDS011;38806;51.554;5.704;2023-09-18T06:30:19;5.60;;;2.17;;
50495;SDS011;38806;51.554;5.704;2023-09-18T06:32:19;7.47;;;2.17;;
50495;SDS011;38806;51.554;5.704;2023-09-18T06:34:20;3.63;;;1.80;;
50495;SDS011;38806;51.554;5.704;2023-09-18T06:36:20;5.00;;;1.70;;
50495;SDS011;38806;51.554;5.704;2023-09-18T06:38:20;3.63;;;1.45;;
50495;SDS011;38806;51.554;5.704;2023-09-18T06:40:20;6.37;;;2.43;;
50495;SDS011;38806;51.554;5.704;2023-09-18T06:42:20;5.07;;;2.03;;
50495;SDS011;38806;51.554;5.704;2023-09-18T06:44:21;6.07;;;2.63;;
50495;SDS011;38806;51.554;5.704;2023-09-18T06:46:23;3.42;;;1.60;;
50495;SDS011;38806;51.554;5.704;2023-09-18T06:48:24;4.45;;;1.80;;
50495;SDS011;38806;51.554;5.704;2023-09-18T06:50:24;3.65;;;1.92;;
50495;SDS011;38806;51.554;5.704;2023-09-18T06:52:24;4.72;;;1.73;;
50495;SDS011;38806;51.554;5.704;2023-09-18T06:54:25;3.83;;;1.70;;
50495;SDS011;38806;51.554;5.704;2023-09-18T06:56:25;6.88;;;1.52;;
50495;SDS011;38806;51.554;5.704;2023-09-18T06:58:25;5.40;;;1.70;;
50495;SDS011;38806;51.554;5.704;2023-09-18T07:00:25;5.67;;;1.53;;
50495;SDS011;38806;51.554;5.704;2023-09-18T07:02:26;4.60;;;1.87;;
50495;SDS011;38806;51.554;5.704;2023-09-18T07:04:27;5.13;;;1.45;;
50495;SDS011;38806;51.554;5.704;2023-09-18T07:06:27;7.47;;;2.92;;
50495;SDS011;38806;51.554;5.704;2023-09-18T07:08:27;4.90;;;1.40;;
50495;SDS011;38806;51.554;5.704;2023-09-18T07:10:28;2.83;;;1.30;;
50495;SDS011;38806;51.554;5.704;2023-09-18T07:12:28;5.70;;;1.80;;
50495;SDS011;38806;51.554;5.704;2023-09-18T07:14:28;5.97;;;2.00;;
50495;SDS011;38806;51.554;5.704;2023-09-18T07:16:28;7.30;;;1.63;;
50495;SDS011;38806;51.554;5.704;2023-09-18T07:18:28;5.50;;;1.93;;
50495;SDS011;38806;51.554;5.704;2023-09-18T07:20:28;5.60;;;1.80;;
50495;SDS011;38806;51.554;5.704;2023-09-18T07:22:30;2.85;;;1.58;;
50495;SDS011;38806;51.554;5.704;2023-09-18T07:24:30;3.50;;;1.27;;
50495;SDS011;38806;51.554;5.704;2023-09-18T07:26:30;4.70;;;1.80;;
50495;SDS011;38806;51.554;5.704;2023-09-18T07:28:31;6.22;;;1.77;;
50495;SDS011;38806;51.554;5.704;2023-09-18T07:30:31;5.88;;;1.70;;
50495;SDS011;38806;51.554;5.704;2023-09-18T07:32:32;3.63;;;2.00;;
50495;SDS011;38806;51.554;5.704;2023-09-18T07:34:32;7.20;;;1.90;;
50495;SDS011;38806;51.554;5.704;2023-09-18T07:36:32;6.73;;;1.63;;
50495;SDS011;38806;51.554;5.704;2023-09-18T07:38:32;5.40;;;2.28;;
50495;SDS011;38806;51.554;5.704;2023-09-18T07:40:33;6.13;;;3.15;;
50495;SDS011;38806;51.554;5.704;2023-09-18T07:42:33;4.00;;;1.80;;
50495;SDS011;38806;51.554;5.704;2023-09-18T07:44:33;4.60;;;2.00;;
50495;SDS011;38806;51.554;5.704;2023-09-18T07:46:34;4.77;;;1.90;;
50495;SDS011;38806;51.554;5.704;2023-09-18T07:48:34;6.75;;;1.65;;
50495;SDS011;38806;51.554;5.704;2023-09-18T07:50:35;4.28;;;1.50;;
50495;SDS011;38806;51.554;5.704;2023-09-18T07:52:35;4.78;;;1.58;;
50495;SDS011;38806;51.554;5.704;2023-09-18T07:54:35;3.38;;;1.45;;
50495;SDS011;38806;51.554;5.704;2023-09-18T07:56:35;6.17;;;2.10;;
50495;SDS011;38806;51.554;5.704;2023-09-18T07:58:37;4.05;;;1.63;;
50495;SDS011;38806;51.554;5.704;2023-09-18T08:00:38;3.65;;;1.55;;
50495;SDS011;38806;51.554;5.704;2023-09-18T08:02:39;2.97;;;1.45;;
50495;SDS011;38806;51.554;5.704;2023-09-18T08:04:40;4.22;;;2.72;;
50495;SDS011;38806;51.554;5.704;2023-09-18T08:06:40;6.00;;;1.85;;
50495;SDS011;38806;51.554;5.704;2023-09-18T08:08:41;4.43;;;1.85;;
50495;SDS011;38806;51.554;5.704;2023-09-18T08:10:41;4.33;;;1.63;;
50495;SDS011;38806;51.554;5.704;2023-09-18T08:12:42;4.30;;;1.85;;
50495;SDS011;38806;51.554;5.704;2023-09-18T08:14:42;6.70;;;1.70;;
50495;SDS011;38806;51.554;5.704;2023-09-18T08:16:42;4.20;;;1.48;;
50495;SDS011;38806;51.554;5.704;2023-09-18T08:18:43;5.57;;;2.05;;
50495;SDS011;38806;51.554;5.704;2023-09-18T08:20:43;5.57;;;1.48;;
50495;SDS011;38806;51.554;5.704;2023-09-18T08:22:44;6.57;;;1.47;;
50495;SDS011;38806;51.554;5.704;2023-09-18T08:24:45;4.38;;;1.50;;
50495;SDS011;38806;51.554;5.704;2023-09-18T08:26:45;5.55;;;1.98;;
50495;SDS011;38806;51.554;5.704;2023-09-18T08:28:46;5.30;;;1.43;;
50495;SDS011;38806;51.554;5.704;2023-09-18T08:30:46;3.78;;;1.73;;
50495;SDS011;38806;51.554;5.704;2023-09-18T08:32:47;4.50;;;1.85;;
50495;SDS011;38806;51.554;5.704;2023-09-18T08:34:47;6.30;;;1.40;;
50495;SDS011;38806;51.554;5.704;2023-09-18T08:36:47;7.40;;;1.90;;
50495;SDS011;38806;51.554;5.704;2023-09-18T08:38:47;5.60;;;1.80;;
50495;SDS011;38806;51.554;5.704;2023-09-18T08:40:47;3.63;;;1.58;;
50495;SDS011;38806;51.554;5.704;2023-09-18T08:42:48;4.32;;;1.92;;
50495;SDS011;38806;51.554;5.704;2023-09-18T08:44:51;4.43;;;1.33;;
50495;SDS011;38806;51.554;5.704;2023-09-18T08:46:51;5.13;;;1.67;;
50495;SDS011;38806;51.554;5.704;2023-09-18T08:48:51;8.53;;;1.50;;
50495;SDS011;38806;51.554;5.704;2023-09-18T08:50:52;4.20;;;2.22;;
50495;SDS011;38806;51.554;5.704;2023-09-18T08:52:52;4.93;;;1.63;;
50495;SDS011;38806;51.554;5.704;2023-09-18T08:54:54;4.63;;;1.60;;
50495;SDS011;38806;51.554;5.704;2023-09-18T08:56:56;6.03;;;1.80;;
50495;SDS011;38806;51.554;5.704;2023-09-18T08:58:56;8.32;;;2.00;;
50495;SDS011;38806;51.554;5.704;2023-09-18T09:00:58;5.10;;;1.10;;
50495;SDS011;38806;51.554;5.704;2023-09-18T09:02:59;3.53;;;1.45;;
50495;SDS011;38806;51.554;5.704;2023-09-18T09:05:00;4.97;;;1.60;;
50495;SDS011;38806;51.554;5.704;2023-09-18T09:07:00;4.53;;;1.73;;
50495;SDS011;38806;51.554;5.704;2023-09-18T09:09:00;4.30;;;1.63;;
50495;SDS011;38806;51.554;5.704;2023-09-18T09:11:02;3.38;;;1.33;;
50495;SDS011;38806;51.554;5.704;2023-09-18T09:13:03;4.70;;;1.75;;
50495;SDS011;38806;51.554;5.704;2023-09-18T09:15:03;8.35;;;2.05;;
50495;SDS011;38806;51.554;5.704;2023-09-18T09:17:04;6.68;;;1.92;;
50495;SDS011;38806;51.554;5.704;2023-09-18T09:19:04;4.85;;;1.67;;
50495;SDS011;38806;51.554;5.704;2023-09-18T09:21:04;8.60;;;1.92;;
50495;SDS011;38806;51.554;5.704;2023-09-18T09:23:06;4.18;;;1.38;;
50495;SDS011;38806;51.554;5.704;2023-09-18T09:25:29;4.03;;;2.05;;
50495;SDS011;38806;51.554;5.704;2023-09-18T09:27:27;4.00;;;2.17;;
50495;SDS011;38806;51.554;5.704;2023-09-18T09:29:27;7.00;;;1.70;;
50495;SDS011;38806;51.554;5.704;2023-09-18T09:31:29;7.20;;;2.22;;
50495;SDS011;38806;51.554;5.704;2023-09-18T09:33:30;5.13;;;2.05;;
50495;SDS011;38806;51.554;5.704;2023-09-18T09:35:31;4.15;;;1.88;;
50495;SDS011;38806;51.554;5.704;2023-09-18T09:37:33;3.38;;;1.95;;
50495;SDS011;38806;51.554;5.704;2023-09-18T09:39:34;4.80;;;1.90;;
50495;SDS011;38806;51.554;5.704;2023-09-18T09:41:34;3.65;;;1.63;;
50495;SDS011;38806;51.554;5.704;2023-09-18T09:43:35;5.25;;;1.88;;
50495;SDS011;38806;51.554;5.704;2023-09-18T09:45:35;6.37;;;2.10;;
50495;SDS011;38806;51.554;5.704;2023-09-18T09:47:36;6.82;;;2.42;;
50495;SDS011;38806;51.554;5.704;2023-09-18T09:49:46;4.05;;;1.85;;
50495;SDS011;38806;51.554;5.704;2023-09-18T09:51:47;2.88;;;1.70;;
50495;SDS011;38806;51.554;5.704;2023-09-18T09:53:47;4.90;;;2.20;;
50495;SDS011;38806;51.554;5.704;2023-09-18T09:55:54;6.22;;;2.22;;
50495;SDS011;38806;51.554;5.704;2023-09-18T09:57:58;5.28;;;2.38;;
50495;SDS011;38806;51.554;5.704;2023-09-18T10:00:04;5.72;;;2.50;;
50495;SDS011;38806;51.554;5.704;2023-09-18T10:02:24;6.70;;;2.55;;
50495;SDS011;38806;51.554;5.704;2023-09-18T10:04:24;3.10;;;1.48;;
50495;SDS011;38806;51.554;5.704;2023-09-18T10:06:26;4.45;;;1.92;;
50495;SDS011;38806;51.554;5.704;2023-09-18T10:08:30;4.85;;;2.22;;
50495;SDS011;38806;51.554;5.704;2023-09-18T10:10:32;6.68;;;1.98;;
50495;SDS011;38806;51.554;5.704;2023-09-18T10:12:34;4.47;;;2.00;;
50495;SDS011;38806;51.554;5.704;2023-09-18T10:14:34;4.50;;;2.35;;
50495;SDS011;38806;51.554;5.704;2023-09-18T10:16:35;3.47;;;1.63;;
50495;SDS011;38806;51.554;5.704;2023-09-18T10:21:09;4.03;;;1.90;;
50495;SDS011;38806;51.554;5.704;2023-09-18T10:23:12;5.03;;;3.13;;
50495;SDS011;38806;51.554;5.704;2023-09-18T10:25:20;5.28;;;2.20;;
50495;SDS011;38806;51.554;5.704;2023-09-18T10:27:21;3.80;;;2.20;;
50495;SDS011;38806;51.554;5.704;2023-09-18T10:29:23;5.07;;;1.95;;
50495;SDS011;38806;51.554;5.704;2023-09-18T10:31:26;4.38;;;1.92;;
50495;SDS011;38806;51.554;5.704;2023-09-18T10:33:27;3.33;;;1.90;;
50495;SDS011;38806;51.554;5.704;2023-09-18T10:35:28;4.30;;;2.30;;
50495;SDS011;38806;51.554;5.704;2023-09-18T10:37:29;4.85;;;2.47;;
50495;SDS011;38806;51.554;5.704;2023-09-18T10:39:30;5.38;;;2.00;;
50495;SDS011;38806;51.554;5.704;2023-09-18T10:41:30;6.70;;;1.92;;
50495;SDS011;38806;51.554;5.704;2023-09-18T10:43:31;3.80;;;1.85;;
50495;SDS011;38806;51.554;5.704;2023-09-18T10:45:31;3.63;;;1.73;;
50495;SDS011;38806;51.554;5.704;2023-09-18T10:47:32;5.93;;;1.88;;
50495;SDS011;38806;51.554;5.704;2023-09-18T10:49:33;8.02;;;2.10;;
50495;SDS011;38806;51.554;5.704;2023-09-18T10:51:35;5.18;;;2.20;;
50495;SDS011;38806;51.554;5.704;2023-09-18T10:53:40;5.63;;;2.80;;
50495;SDS011;38806;51.554;5.704;2023-09-18T10:55:44;7.93;;;2.38;;
50495;SDS011;38806;51.554;5.704;2023-09-18T10:57:55;5.97;;;2.15;;
50495;SDS011;38806;51.554;5.704;2023-09-18T10:59:55;5.63;;;1.73;;
50495;SDS011;38806;51.554;5.704;2023-09-18T11:01:56;4.45;;;2.13;;
50495;SDS011;38806;51.554;5.704;2023-09-18T11:04:06;9.80;;;2.72;;
50495;SDS011;38806;51.554;5.704;2023-09-18T11:06:11;4.28;;;2.30;;
50495;SDS011;38806;51.554;5.704;2023-09-18T11:10:28;4.45;;;2.00;;
50495;SDS011;38806;51.554;5.704;2023-09-18T11:12:44;7.45;;;2.50;;
50495;SDS011;38806;51.554;5.704;2023-09-18T11:16:49;5.03;;;2.25;;
50495;SDS011;38806;51.554;5.704;2023-09-18T11:18:50;4.43;;;2.22;;
50495;SDS011;38806;51.554;5.704;2023-09-18T11:21:11;5.68;;;2.58;;
50495;SDS011;38806;51.554;5.704;2023-09-18T11:27:43;3.35;;;2.00;;
50495;SDS011;38806;51.554;5.704;2023-09-18T11:29:52;7.88;;;2.47;;
50495;SDS011;38806;51.554;5.704;2023-09-18T11:31:56;5.22;;;3.20;;
50495;SDS011;38806;51.554;5.704;2023-09-18T11:33:57;6.93;;;2.53;;
50495;SDS011;38806;51.554;5.704;2023-09-18T11:36:02;4.13;;;2.50;;
50495;SDS011;38806;51.554;5.704;2023-09-18T11:38:04;7.65;;;2.58;;
50495;SDS011;38806;51.554;5.704;2023-09-18T11:40:26;5.97;;;2.33;;
50495;SDS011;38806;51.554;5.704;2023-09-18T11:42:27;5.18;;;2.10;;
50495;SDS011;38806;51.554;5.704;2023-09-18T11:46:29;5.28;;;2.47;;
50495;SDS011;38806;51.554;5.704;2023-09-18T11:48:30;6.60;;;3.03;;
50495;SDS011;38806;51.554;5.704;2023-09-18T11:50:36;4.80;;;2.30;;
50495;SDS011;38806;51.554;5.704;2023-09-18T11:52:36;5.43;;;2.78;;
50495;SDS011;38806;51.554;5.704;2023-09-18T11:54:39;9.85;;;2.72;;
50495;SDS011;38806;51.554;5.704;2023-09-18T11:56:39;8.02;;;2.75;;
50495;SDS011;38806;51.554;5.704;2023-09-18T11:58:49;4.93;;;2.33;;
50495;SDS011;38806;51.554;5.704;2023-09-18T12:00:50;8.50;;;3.20;;
50495;SDS011;38806;51.554;5.704;2023-09-18T12:02:50;5.95;;;2.40;;
50495;SDS011;38806;51.554;5.704;2023-09-18T12:04:50;7.23;;;2.80;;
50495;SDS011;38806;51.554;5.704;2023-09-18T12:06:51;3.30;;;2.43;;
50495;SDS011;38806;51.554;5.704;2023-09-18T12:08:51;4.80;;;2.10;;
50495;SDS011;38806;51.554;5.704;2023-09-18T12:10:53;5.22;;;2.33;;
50495;SDS011;38806;51.554;5.704;2023-09-18T12:12:53;3.20;;;1.98;;
50495;SDS011;38806;51.554;5.704;2023-09-18T12:14:53;5.33;;;2.23;;
50495;SDS011;38806;51.554;5.704;2023-09-18T12:16:54;9.77;;;2.63;;
50495;SDS011;38806;51.554;5.704;2023-09-18T12:18:54;7.57;;;2.58;;